createdAt,value
2019-04-07T00:01:50.396Z,99.90
2019-04-07T00:04:20.377Z,99.90
2019-04-07T00:06:49.985Z,99.90
2019-04-07T00:09:20.457Z,99.90
2019-04-07T00:11:50.730Z,99.90
2019-04-07T00:14:20.686Z,99.90
2019-04-07T00:16:50.534Z,99.90
2019-04-07T00:19:20.837Z,99.90
2019-04-07T00:21:50.651Z,99.90
2019-04-07T00:24:19.973Z,99.90
2019-04-07T00:26:49.408Z,99.90
2019-04-07T00:29:19.498Z,99.90
2019-04-07T00:31:49.205Z,99.90
2019-04-07T00:34:19.149Z,99.90
2019-04-07T00:36:48.645Z,99.90
2019-04-07T00:39:18.047Z,99.90
2019-04-07T00:41:47.526Z,99.90
2019-04-07T00:44:17.396Z,99.90
2019-04-07T00:46:47.653Z,99.90
2019-04-07T00:49:18.265Z,99.90
2019-04-07T00:51:48.500Z,99.90
2019-04-07T00:54:18.164Z,99.90
2019-04-07T00:56:47.599Z,99.90
2019-04-07T00:59:17.498Z,99.90
2019-04-07T01:01:47.616Z,99.90
2019-04-07T01:04:16.971Z,99.90
2019-04-07T01:06:46.473Z,99.90
2019-04-07T01:09:15.861Z,99.90
2019-04-07T01:11:45.243Z,99.90
2019-04-07T01:14:14.905Z,99.90
2019-04-07T01:16:45.503Z,99.90
2019-04-07T01:19:15.112Z,99.90
2019-04-07T01:21:44.742Z,99.90
2019-04-07T01:24:14.473Z,99.90
2019-04-07T01:26:44.673Z,99.90
2019-04-07T01:29:14.719Z,99.90
2019-04-07T01:31:44.268Z,99.90
2019-04-07T01:34:13.631Z,99.90
2019-04-07T01:36:43.091Z,99.90
2019-04-07T01:39:12.986Z,99.90
2019-04-07T01:41:50.409Z,99.90
2019-04-07T01:44:43.884Z,99.90
2019-04-07T01:47:36.294Z,99.90
2019-04-07T01:50:23.949Z,99.90
2019-04-07T01:53:15.432Z,99.90
2019-04-07T01:56:15.985Z,99.90
2019-04-07T01:59:11.237Z,99.90
2019-04-07T02:01:49.234Z,99.90
2019-04-07T02:04:43.727Z,99.90
2019-04-07T02:07:28.311Z,99.90
2019-04-07T02:10:22.942Z,99.90
2019-04-07T02:13:14.028Z,99.90
2019-04-07T02:16:02.841Z,99.90
2019-04-07T02:18:43.219Z,99.90
2019-04-07T02:21:29.789Z,99.90
2019-04-07T02:24:19.200Z,99.90
2019-04-07T02:27:07.663Z,99.90
2019-04-07T02:29:51.289Z,99.90
2019-04-07T02:32:31.769Z,99.90
2019-04-07T02:35:20.900Z,99.90
2019-04-07T02:37:56.903Z,99.90
2019-04-07T02:40:47.313Z,99.90
2019-04-07T02:43:42.508Z,99.90
2019-04-07T02:46:36.572Z,99.90
2019-04-07T02:49:15.414Z,99.90
2019-04-07T02:52:03.969Z,99.90
2019-04-07T02:54:52.966Z,99.90
2019-04-07T02:57:40.425Z,99.90
2019-04-07T03:00:18.235Z,99.90
2019-04-07T03:03:22.776Z,99.90
2019-04-07T03:06:03.599Z,99.90
2019-04-07T03:08:43.056Z,99.90
2019-04-07T03:11:40.440Z,99.90
2019-04-07T03:14:14.330Z,99.90
2019-04-07T03:17:05.042Z,99.90
2019-04-07T03:20:02.983Z,99.90
2019-04-07T03:22:51.450Z,99.90
2019-04-07T03:25:46.500Z,99.90
2019-04-07T03:28:33.373Z,99.90
2019-04-07T03:31:17.148Z,99.90
2019-04-07T03:33:59.550Z,99.90
2019-04-07T03:37:15.163Z,99.90
2019-04-07T03:39:42.359Z,99.90
2019-04-07T03:42:34.335Z,99.90
2019-04-07T03:45:13.725Z,99.90
2019-04-07T03:47:50.500Z,99.90
2019-04-07T03:50:38.646Z,99.90
2019-04-07T03:53:39.645Z,99.90
2019-04-07T03:56:27.196Z,99.90
2019-04-07T03:59:16.155Z,99.90
2019-04-07T04:02:14.226Z,99.90
2019-04-07T04:04:48.968Z,99.90
2019-04-07T04:07:32.302Z,99.90
2019-04-07T04:10:21.214Z,99.90
2019-04-07T04:13:05.038Z,99.90
2019-04-07T04:15:46.723Z,99.90
2019-04-07T04:18:16.378Z,99.90
2019-04-07T04:20:46.423Z,99.90
2019-04-07T04:23:17.807Z,99.90
2019-04-07T04:25:47.338Z,99.90
2019-04-07T04:28:16.973Z,99.90
2019-04-07T04:30:46.520Z,99.90
2019-04-07T04:33:16.051Z,99.90
2019-04-07T04:35:46.059Z,99.90
2019-04-07T04:38:15.855Z,99.90
2019-04-07T04:40:45.949Z,99.90
2019-04-07T04:43:15.703Z,99.90
2019-04-07T04:45:46.171Z,99.90
2019-04-07T04:48:15.792Z,99.90
2019-04-07T04:50:45.789Z,99.90
2019-04-07T04:53:15.478Z,99.90
2019-04-07T04:55:45.740Z,99.90
2019-04-07T04:58:15.364Z,99.90
2019-04-07T05:00:44.890Z,99.90
2019-04-07T05:03:14.964Z,99.90
2019-04-07T05:05:44.462Z,99.90
2019-04-07T05:08:13.937Z,99.90
2019-04-07T05:10:43.966Z,99.90
2019-04-07T05:13:14.063Z,99.90
2019-04-07T05:15:43.552Z,99.90
2019-04-07T05:18:13.082Z,99.90
2019-04-07T05:20:42.713Z,99.90
2019-04-07T05:23:12.972Z,99.90
2019-04-07T05:25:42.787Z,99.90
2019-04-07T05:28:12.413Z,99.90
2019-04-07T05:30:42.402Z,99.90
2019-04-07T05:33:12.107Z,99.90
2019-04-07T05:35:41.684Z,99.90
2019-04-07T05:38:11.321Z,99.90
2019-04-07T05:40:41.067Z,99.90
2019-04-07T05:43:10.726Z,99.90
2019-04-07T05:45:40.142Z,99.90
2019-04-07T05:48:10.740Z,99.90
2019-04-07T05:50:40.706Z,99.90
2019-04-07T05:53:13.397Z,99.90
2019-04-07T05:55:41.586Z,99.90
2019-04-07T05:58:11.640Z,99.90
2019-04-07T06:00:45.879Z,99.90
2019-04-07T06:03:14.332Z,99.90
2019-04-07T06:05:44.635Z,99.90
2019-04-07T06:08:26.047Z,99.90
2019-04-07T06:10:46.280Z,99.90
2019-04-07T06:13:16.072Z,99.90
2019-04-07T06:15:45.785Z,99.90
2019-04-07T06:18:15.560Z,99.90
2019-04-07T06:20:45.795Z,99.90
2019-04-07T06:23:16.106Z,99.90
2019-04-07T06:25:46.304Z,99.90
2019-04-07T06:28:18.100Z,99.90
2019-04-07T06:30:47.429Z,99.90
2019-04-07T06:33:17.493Z,99.90
2019-04-07T06:35:47.679Z,99.90
2019-04-07T06:38:17.743Z,99.90
2019-04-07T06:40:47.840Z,99.90
2019-04-07T06:43:18.644Z,99.90
2019-04-07T06:46:08.193Z,99.90
2019-04-07T06:48:58.150Z,99.90
2019-04-07T06:51:39.731Z,99.90
2019-04-07T06:54:37.716Z,99.90
2019-04-07T06:57:26.586Z,99.90
2019-04-07T07:00:17.429Z,99.90
2019-04-07T07:03:09.943Z,99.90
2019-04-07T07:06:01.359Z,99.90
2019-04-07T07:08:52.891Z,99.90
2019-04-07T07:11:54.133Z,99.90
2019-04-07T07:14:44.981Z,99.90
2019-04-07T07:17:48.599Z,99.90
2019-04-07T07:20:32.728Z,99.90
2019-04-07T07:23:14.405Z,99.90
2019-04-07T07:25:43.818Z,99.90
2019-04-07T07:28:13.567Z,99.90
2019-04-07T07:30:43.728Z,99.90
2019-04-07T07:33:13.621Z,99.90
2019-04-07T07:35:47.466Z,99.90
2019-04-07T07:38:14.884Z,99.90
2019-04-07T07:40:44.968Z,99.90
2019-04-07T07:43:15.555Z,99.90
2019-04-07T07:45:48.086Z,99.90
2019-04-07T07:48:16.396Z,99.90
2019-04-07T07:50:45.830Z,99.90
2019-04-07T07:53:15.800Z,99.90
2019-04-07T07:55:45.542Z,99.90
2019-04-07T07:58:15.768Z,99.90
2019-04-07T08:00:46.082Z,99.90
2019-04-07T08:03:15.587Z,99.90
2019-04-07T08:05:45.483Z,99.90
2019-04-07T08:08:16.378Z,99.90
2019-04-07T08:10:46.283Z,99.90
2019-04-07T08:13:16.792Z,99.90
2019-04-07T08:15:46.937Z,99.90
2019-04-07T08:18:18.880Z,99.90
2019-04-07T08:20:47.988Z,99.90
2019-04-07T08:23:17.426Z,99.20
2019-04-07T08:25:46.914Z,99.60
2019-04-07T08:28:19.343Z,98.80
2019-04-07T08:30:47.748Z,98.50
2019-04-07T08:33:17.920Z,98.60
2019-04-07T08:35:48.015Z,97.50
2019-04-07T08:38:20.032Z,96.70
2019-04-07T08:40:49.116Z,97.00
2019-04-07T08:43:21.203Z,96.90
2019-04-07T08:45:51.439Z,96.10
2019-04-07T08:48:21.585Z,95.90
2019-04-07T08:50:51.841Z,96.10
2019-04-07T08:53:21.498Z,95.10
2019-04-07T08:55:54.361Z,94.60
2019-04-07T08:58:25.693Z,94.30
2019-04-07T09:00:54.072Z,93.30
2019-04-07T09:03:23.802Z,93.80
2019-04-07T09:05:56.561Z,93.10
2019-04-07T09:08:24.559Z,92.70
2019-04-07T09:10:59.356Z,93.70
2019-04-07T09:13:31.664Z,92.90
2019-04-07T09:16:28.038Z,92.50
2019-04-07T09:19:22.513Z,92.90
2019-04-07T09:21:59.159Z,92.30
2019-04-07T09:24:47.225Z,91.90
2019-04-07T09:27:31.260Z,91.90
2019-04-07T09:30:14.177Z,92.20
2019-04-07T09:32:51.293Z,91.70
2019-04-07T09:35:33.315Z,92.20
2019-04-07T09:38:21.721Z,90.90
2019-04-07T09:41:16.453Z,91.40
2019-04-07T09:43:55.698Z,90.70
2019-04-07T09:46:44.337Z,91.20
2019-04-07T09:49:27.661Z,90.90
2019-04-07T09:52:13.214Z,91.10
2019-04-07T09:54:47.361Z,91.20
2019-04-07T09:57:54.857Z,90.90
2019-04-07T10:00:45.404Z,90.60
2019-04-07T10:03:40.038Z,90.60
2019-04-07T10:06:31.534Z,91.20
2019-04-07T10:09:13.545Z,90.50
2019-04-07T10:11:52.021Z,91.60
2019-04-07T10:14:46.602Z,90.70
2019-04-07T10:17:34.041Z,91.40
2019-04-07T10:20:23.129Z,90.30
2019-04-07T10:23:05.069Z,90.30
2019-04-07T10:25:57.245Z,91.00
2019-04-07T10:28:51.485Z,90.70
2019-04-07T10:31:30.498Z,90.60
2019-04-07T10:34:21.590Z,90.30
2019-04-07T10:37:11.947Z,90.00
2019-04-07T10:40:00.384Z,90.80
2019-04-07T10:42:54.778Z,90.60
2019-04-07T10:45:34.058Z,90.50
2019-04-07T10:48:31.790Z,91.10
2019-04-07T10:51:08.233Z,90.60
2019-04-07T10:54:13.565Z,91.00
2019-04-07T10:57:07.919Z,90.60
2019-04-07T10:59:45.281Z,90.90
2019-04-07T11:02:33.954Z,90.60
2019-04-07T11:05:41.178Z,89.00
2019-04-07T11:08:20.151Z,89.10
2019-04-07T11:11:09.713Z,89.50
2019-04-07T11:13:56.988Z,90.00
2019-04-07T11:16:44.188Z,90.40
2019-04-07T11:19:29.380Z,89.50
2019-04-07T11:22:36.021Z,88.00
2019-04-07T11:25:15.022Z,89.20
2019-04-07T11:28:03.582Z,88.70
2019-04-07T11:30:56.360Z,89.10
2019-04-07T11:33:36.156Z,87.50
2019-04-07T11:36:17.985Z,88.30
2019-04-07T11:39:04.291Z,87.50
2019-04-07T11:41:59.006Z,87.80
2019-04-07T11:44:54.193Z,86.90
2019-04-07T11:47:39.546Z,87.30
2019-04-07T11:50:28.022Z,84.10
2019-04-07T11:53:15.653Z,83.70
2019-04-07T11:55:58.100Z,84.80
2019-04-07T11:58:39.875Z,86.90
2019-04-07T12:01:34.932Z,85.30
2019-04-07T12:04:30.728Z,84.70
2019-04-07T12:07:09.992Z,84.20
2019-04-07T12:10:14.254Z,85.30
2019-04-07T12:12:53.813Z,85.70
2019-04-07T12:15:43.039Z,83.20
2019-04-07T12:18:51.987Z,83.90
2019-04-07T12:21:42.429Z,83.10
2019-04-07T12:24:39.733Z,84.10
2019-04-07T12:27:27.051Z,84.00
2019-04-07T12:30:14.375Z,83.50
2019-04-07T12:32:57.586Z,84.00
2019-04-07T12:35:51.663Z,83.60
2019-04-07T12:38:29.025Z,83.20
2019-04-07T12:41:20.843Z,84.50
2019-04-07T12:43:59.503Z,84.90
2019-04-07T12:46:40.786Z,85.40
2019-04-07T12:49:29.876Z,84.00
2019-04-07T12:52:17.387Z,83.70
2019-04-07T12:55:24.017Z,82.70
2019-04-07T12:58:04.976Z,82.90
2019-04-07T13:01:12.773Z,83.70
2019-04-07T13:04:05.657Z,82.70
2019-04-07T13:06:50.600Z,85.20
2019-04-07T13:09:38.988Z,84.60
2019-04-07T13:12:23.634Z,84.30
2019-04-07T13:15:14.523Z,83.10
2019-04-07T13:18:08.336Z,82.80
2019-04-07T13:20:54.739Z,83.70
2019-04-07T13:23:31.781Z,83.00
2019-04-07T13:26:15.389Z,84.50
2019-04-07T13:29:04.267Z,84.90
2019-04-07T13:31:47.053Z,84.10
2019-04-07T13:34:31.167Z,82.90
2019-04-07T13:37:18.762Z,83.10
2019-04-07T13:40:10.297Z,82.40
2019-04-07T13:42:48.671Z,83.20
2019-04-07T13:45:46.295Z,83.90
2019-04-07T13:48:32.279Z,84.40
2019-04-07T13:51:23.919Z,83.70
2019-04-07T13:54:13.119Z,82.80
2019-04-07T13:57:02.357Z,83.10
2019-04-07T13:59:56.518Z,82.80
2019-04-07T14:02:36.998Z,82.00
2019-04-07T14:05:22.332Z,81.20
2019-04-07T14:08:30.957Z,80.80
2019-04-07T14:11:17.731Z,80.80
2019-04-07T14:13:57.357Z,81.00
2019-04-07T14:16:44.440Z,81.90
2019-04-07T14:19:37.078Z,81.60
2019-04-07T14:22:33.167Z,82.30
2019-04-07T14:25:24.615Z,82.60
2019-04-07T14:28:19.001Z,85.10
2019-04-07T14:31:04.327Z,83.00
2019-04-07T14:33:52.195Z,81.90
2019-04-07T14:36:39.512Z,82.40
2019-04-07T14:39:24.908Z,80.60
2019-04-07T14:42:13.294Z,81.60
2019-04-07T14:45:01.336Z,81.70
2019-04-07T14:47:49.978Z,80.10
2019-04-07T14:50:32.044Z,80.90
2019-04-07T14:53:19.956Z,81.40
2019-04-07T14:56:07.795Z,81.10
2019-04-07T14:58:56.284Z,80.90
2019-04-07T15:01:53.865Z,80.90
2019-04-07T15:04:26.847Z,81.60
2019-04-07T15:07:34.556Z,79.50
2019-04-07T15:10:19.280Z,79.20
2019-04-07T15:12:55.606Z,79.20
2019-04-07T15:15:25.526Z,79.10
2019-04-07T15:17:55.082Z,79.70
2019-04-07T15:20:25.045Z,80.30
2019-04-07T15:22:58.422Z,80.10
2019-04-07T15:25:27.599Z,81.50
2019-04-07T15:27:58.974Z,81.90
2019-04-07T15:30:28.587Z,81.20
2019-04-07T15:33:01.262Z,81.20
2019-04-07T15:35:29.844Z,82.60
2019-04-07T15:37:59.325Z,81.90
2019-04-07T15:40:32.677Z,83.30
2019-04-07T15:43:03.132Z,82.60
2019-04-07T15:45:31.839Z,81.70
2019-04-07T15:48:01.383Z,82.20
2019-04-07T15:50:31.434Z,82.60
2019-04-07T15:53:01.606Z,84.30
2019-04-07T15:55:45.872Z,84.80
2019-04-07T15:58:03.149Z,85.00
2019-04-07T16:00:35.199Z,84.60
2019-04-07T16:03:04.340Z,85.80
2019-04-07T16:05:41.294Z,85.10
2019-04-07T16:08:06.305Z,85.80
2019-04-07T16:10:36.086Z,85.80
2019-04-07T16:13:06.714Z,85.50
2019-04-07T16:15:37.276Z,86.00
2019-04-07T16:18:08.671Z,87.40
2019-04-07T16:20:40.410Z,86.70
2019-04-07T16:23:10.400Z,85.10
2019-04-07T16:25:41.581Z,85.30
2019-04-07T16:28:14.419Z,85.80
2019-04-07T16:30:47.791Z,84.40
2019-04-07T16:33:15.237Z,84.30
2019-04-07T16:35:51.120Z,83.20
2019-04-07T16:38:16.438Z,82.30
2019-04-07T16:40:47.993Z,83.00
2019-04-07T16:43:18.927Z,82.20
2019-04-07T16:45:51.044Z,82.70
2019-04-07T16:48:20.889Z,82.40
2019-04-07T16:50:53.320Z,82.10
2019-04-07T16:53:22.157Z,82.30
2019-04-07T16:55:55.112Z,83.70
2019-04-07T16:58:27.541Z,83.90
2019-04-07T17:01:00.053Z,83.50
2019-04-07T17:03:32.360Z,84.70
2019-04-07T17:06:02.896Z,83.80
2019-04-07T17:08:32.632Z,84.80
2019-04-07T17:11:06.386Z,85.90
2019-04-07T17:13:39.792Z,85.30
2019-04-07T17:16:10.093Z,85.90
2019-04-07T17:18:43.057Z,86.80
2019-04-07T17:21:16.021Z,87.20
2019-04-07T17:23:47.592Z,88.00
2019-04-07T17:26:18.116Z,87.40
2019-04-07T17:28:49.535Z,87.90
2019-04-07T17:31:19.657Z,88.50
2019-04-07T17:33:49.331Z,88.90
2019-04-07T17:36:21.610Z,89.00
2019-04-07T17:39:15.611Z,88.60
2019-04-07T17:41:49.077Z,89.20
2019-04-07T17:44:42.127Z,89.20
2019-04-07T17:47:49.960Z,89.50
2019-04-07T17:50:42.182Z,89.90
2019-04-07T17:53:36.664Z,90.60
2019-04-07T17:56:20.142Z,90.80
2019-04-07T17:58:59.819Z,91.00
2019-04-07T18:01:46.557Z,91.00
2019-04-07T18:04:36.350Z,91.50
2019-04-07T18:07:24.340Z,91.50
2019-04-07T18:10:11.592Z,92.00
2019-04-07T18:13:01.042Z,92.80
2019-04-07T18:15:41.771Z,93.20
2019-04-07T18:18:31.466Z,92.40
2019-04-07T18:21:13.410Z,93.30
2019-04-07T18:23:56.598Z,93.00
2019-04-07T18:27:01.678Z,93.40
2019-04-07T18:29:50.122Z,93.20
2019-04-07T18:32:46.113Z,93.70
2019-04-07T18:35:35.253Z,93.70
2019-04-07T18:38:19.544Z,95.80
2019-04-07T18:41:17.372Z,95.60
2019-04-07T18:44:08.627Z,96.10
2019-04-07T18:46:57.459Z,96.30
2019-04-07T18:49:47.203Z,97.60
2019-04-07T18:52:53.254Z,97.40
2019-04-07T18:55:46.383Z,98.20
2019-04-07T18:58:34.380Z,98.20
2019-04-07T19:01:25.670Z,98.60
2019-04-07T19:04:17.268Z,99.00
2019-04-07T19:07:10.794Z,99.50
2019-04-07T19:10:09.530Z,99.50
2019-04-07T19:12:41.609Z,99.90
2019-04-07T19:15:40.039Z,99.90
2019-04-07T19:18:30.704Z,99.90
2019-04-07T19:21:13.548Z,99.90
2019-04-07T19:23:50.868Z,99.90
2019-04-07T19:26:41.066Z,99.90
2019-04-07T19:29:33.556Z,99.90
2019-04-07T19:32:25.076Z,99.90
2019-04-07T19:35:13.214Z,99.90
2019-04-07T19:38:09.505Z,99.90
2019-04-07T19:41:00.215Z,99.90
2019-04-07T19:43:46.547Z,99.90
2019-04-07T19:46:34.851Z,99.90
2019-04-07T19:49:27.260Z,99.90
2019-04-07T19:52:24.865Z,99.90
2019-04-07T19:55:07.950Z,99.90
2019-04-07T19:57:47.689Z,99.90
2019-04-07T20:00:37.252Z,99.90
2019-04-07T20:03:31.975Z,99.90
2019-04-07T20:06:27.933Z,99.90
2019-04-07T20:09:15.590Z,99.90
2019-04-07T20:12:10.685Z,99.90
2019-04-07T20:15:05.587Z,99.90
2019-04-07T20:17:54.561Z,99.90
2019-04-07T20:20:43.490Z,99.90
2019-04-07T20:23:39.459Z,99.90
2019-04-07T20:26:38.835Z,99.90
2019-04-07T20:29:42.649Z,99.90
2019-04-07T20:32:33.789Z,99.90
2019-04-07T20:35:37.255Z,99.90
2019-04-07T20:38:35.833Z,99.90
2019-04-07T20:41:34.198Z,99.90
2019-04-07T20:44:42.563Z,99.90
2019-04-07T20:47:44.874Z,99.90
2019-04-07T20:50:26.303Z,99.90
2019-04-07T20:53:22.171Z,99.90
2019-04-07T20:56:14.630Z,99.90
2019-04-07T20:59:11.854Z,99.90
2019-04-07T21:02:13.041Z,99.90
2019-04-07T21:04:57.125Z,99.90
2019-04-07T21:07:41.499Z,99.90
2019-04-07T21:10:24.611Z,99.90
2019-04-07T21:13:27.251Z,99.90
2019-04-07T21:16:23.461Z,99.90
2019-04-07T21:19:09.589Z,99.90
2019-04-07T21:22:01.460Z,99.90
2019-04-07T21:25:04.766Z,99.90
2019-04-07T21:27:56.632Z,99.90
2019-04-07T21:30:44.748Z,99.90
2019-04-07T21:33:46.129Z,99.90
2019-04-07T21:36:38.290Z,99.90
2019-04-07T21:39:20.863Z,99.90
2019-04-07T21:42:20.982Z,99.90
2019-04-07T21:45:08.512Z,99.90
2019-04-07T21:47:44.126Z,99.90
2019-04-07T21:50:42.550Z,99.90
2019-04-07T21:53:38.758Z,99.90
2019-04-07T21:56:20.041Z,99.90
2019-04-07T21:59:08.583Z,99.90
2019-04-07T22:01:49.376Z,99.90
2019-04-07T22:04:31.538Z,99.90
2019-04-07T22:07:09.824Z,99.90
2019-04-07T22:09:47.077Z,99.90
2019-04-07T22:12:15.422Z,99.90
2019-04-07T22:14:46.378Z,99.90
2019-04-07T22:17:16.144Z,99.90
2019-04-07T22:19:46.952Z,99.90
2019-04-07T22:22:17.045Z,99.90
2019-04-07T22:24:46.446Z,99.90
2019-04-07T22:27:21.179Z,99.90
2019-04-07T22:29:47.015Z,99.90
2019-04-07T22:32:19.223Z,99.90
2019-04-07T22:34:48.248Z,99.90
2019-04-07T22:37:19.822Z,99.90
2019-04-07T22:39:49.160Z,99.90
2019-04-07T22:42:19.247Z,99.90
2019-04-07T22:44:51.967Z,99.90
2019-04-07T22:47:22.283Z,99.90
2019-04-07T22:49:52.666Z,99.90
2019-04-07T22:52:22.578Z,99.90
2019-04-07T22:54:52.242Z,99.90
2019-04-07T22:57:21.899Z,99.90
2019-04-07T22:59:52.497Z,99.90
2019-04-07T23:02:22.111Z,99.90
2019-04-07T23:04:52.464Z,99.90
2019-04-07T23:07:22.042Z,99.90
2019-04-07T23:09:51.783Z,99.90
2019-04-07T23:12:21.275Z,99.90
2019-04-07T23:14:50.738Z,99.90
2019-04-07T23:17:20.821Z,99.90
2019-04-07T23:19:50.445Z,99.90
2019-04-07T23:22:20.143Z,99.90
2019-04-07T23:24:49.678Z,99.90
2019-04-07T23:27:20.000Z,99.90
2019-04-07T23:29:50.675Z,99.90
2019-04-07T23:32:21.237Z,99.90
2019-04-07T23:34:50.814Z,99.90
2019-04-07T23:37:20.247Z,99.90
2019-04-07T23:39:49.669Z,99.90
2019-04-07T23:42:19.962Z,99.90
2019-04-07T23:44:49.917Z,99.90
2019-04-07T23:47:19.558Z,99.90
2019-04-07T23:49:50.192Z,99.90
2019-04-07T23:52:20.724Z,99.90
2019-04-07T23:54:50.379Z,99.90
2019-04-07T23:57:19.866Z,99.90
2019-04-07T23:59:49.286Z,99.90
